»·PEaware :: SKW1012 KLAS-KDEN

SKW1012 :: KLAS-KDEN

FLIGHT INFORMATION

Flight Status: Arrived
Operator:
SkyWest Airlines
More flights by this operator :: More flights under this callsign
Pilot: Isaac R. (8401)
Aircraft: CANADAIR CL-600 CRJ-700
(CRJ7)
More flights by this aircraft type
Origin: KLAS Harry Reid Intl
United States
Destination: KDEN Denver Intl
United States
More flights between these airports :: More routes between these airports
Route: GIDGT1 TUKRR BUMMP SSKII3
File this flight plan on PilotEdge
Remarks:
Altitude:
(Current/Filed)
39,000ft
Speed:
(Current/Filed)
480kts
Departed: 01-Jan-22 10:57 AM
Arrived: 01-Jan-22 12:12 PM
Distance/Time
Traveled:
544nm/1:15
Distance/Time
To Go:
Arrived

Flight Plot

Page will automatically refresh every two minutes.

Flight plan parsing failed; only flown route is shown


Map Options




Map Legend


Flown Route
Filed Route
Departure Airport
Arrival Airport
Navaid (VOR, NDB)
Fix

Horizontal Profiles

Position Reports

Time Latitude Longitude Heading Altitude Ground
Speed
01-Jan-22 10:50 36.081843 -115.140517 260 2185ft 3kts
01-Jan-22 10:52 36.079332 -115.141160 129 2185ft 9kts
01-Jan-22 10:53 36.078276 -115.137329 89 2186ft 16kts
01-Jan-22 10:53 36.078278 -115.132482 89 2186ft 16kts
01-Jan-22 10:54 36.078286 -115.126553 89 2185ft 17kts
01-Jan-22 10:55 36.077288 -115.121304 159 2186ft 14kts
01-Jan-22 10:56 36.076418 -115.130567 270 2187ft 124kts
01-Jan-22 10:58 36.076155 -115.200402 272 5183ft 192kts
01-Jan-22 10:58 36.076407 -115.256792 271 8099ft 210kts
01-Jan-22 10:59 36.126374 -115.298864 356 10897ft 276kts
01-Jan-22 11:00 36.183528 -115.233321 67 13285ft 314kts
01-Jan-22 11:01 36.198260 -115.118186 93 14725ft 379kts
01-Jan-22 11:02 36.195269 -114.982350 91 17879ft 404kts
01-Jan-22 11:03 36.196019 -114.835007 90 19440ft 464kts
01-Jan-22 11:04 36.195585 -114.676891 90 19486ft 450kts
01-Jan-22 11:05 36.195435 -114.523820 91 19491ft 441kts
01-Jan-22 11:06 36.194456 -114.372785 91 20395ft 436kts
01-Jan-22 11:07 36.194958 -114.223867 84 23684ft 440kts
01-Jan-22 11:08 36.215008 -114.068900 82 25615ft 465kts
01-Jan-22 11:09 36.233511 -113.909206 82 27764ft 474kts
01-Jan-22 11:10 36.253082 -113.744561 82 29486ft 489kts
01-Jan-22 11:11 36.272443 -113.575535 82 30881ft 504kts
01-Jan-22 11:12 36.292331 -113.400144 83 31879ft 520kts
01-Jan-22 11:13 36.317382 -113.222114 74 32724ft 533kts
01-Jan-22 11:14 36.373175 -113.049112 65 33248ft 547kts
01-Jan-22 11:15 36.435044 -112.876243 67 34151ft 535kts
01-Jan-22 11:16 36.492361 -112.710859 67 35969ft 513kts
01-Jan-22 11:17 36.548678 -112.548526 67 36743ft 512kts
01-Jan-22 11:18 36.605272 -112.383459 68 36856ft 526kts
01-Jan-22 11:19 36.663475 -112.214362 67 36988ft 534kts
01-Jan-22 11:20 36.721871 -112.043007 68 36921ft 539kts
01-Jan-22 11:21 36.780195 -111.870787 67 36988ft 542kts
01-Jan-22 11:22 36.837853 -111.696492 68 36974ft 544kts
01-Jan-22 11:23 36.912448 -111.531729 57 36966ft 546kts
01-Jan-22 11:24 36.989977 -111.368260 59 36988ft 548kts
01-Jan-22 11:25 37.067684 -111.203427 59 36982ft 550kts
01-Jan-22 11:26 37.145788 -111.038182 59 36992ft 552kts
01-Jan-22 11:27 37.223522 -110.872088 59 36968ft 552kts
01-Jan-22 11:28 37.301472 -110.705402 58 37015ft 556kts
01-Jan-22 11:29 37.379643 -110.536351 59 36990ft 561kts
01-Jan-22 11:30 37.458143 -110.366102 58 36972ft 565kts
01-Jan-22 11:31 37.536913 -110.194941 59 36987ft 567kts
01-Jan-22 11:32 37.615504 -110.022100 58 36995ft 568kts
01-Jan-22 11:33 37.693946 -109.849056 59 36973ft 570kts
01-Jan-22 11:34 37.772415 -109.675484 59 36979ft 568kts
01-Jan-22 11:35 37.850571 -109.501509 59 37029ft 569kts
01-Jan-22 11:36 37.928561 -109.327259 59 36960ft 568kts
01-Jan-22 11:37 38.005976 -109.152644 59 36986ft 569kts
01-Jan-22 11:38 38.082114 -108.976928 61 36972ft 569kts
01-Jan-22 11:39 38.156038 -108.799659 64 36976ft 569kts
01-Jan-22 11:40 38.225638 -108.618504 63 36980ft 569kts
01-Jan-22 11:41 38.296249 -108.438495 63 36997ft 570kts
01-Jan-22 11:42 38.366205 -108.257464 64 37003ft 571kts
01-Jan-22 11:43 38.435937 -108.076160 63 36952ft 568kts
01-Jan-22 11:44 38.505184 -107.894500 64 36973ft 568kts
01-Jan-22 11:45 38.573692 -107.712313 64 37000ft 570kts
01-Jan-22 11:46 38.641913 -107.529533 64 36986ft 569kts
01-Jan-22 11:47 38.711148 -107.347395 64 36975ft 567kts
01-Jan-22 11:48 38.779379 -107.166069 62 36945ft 563kts
01-Jan-22 11:49 38.847083 -106.985810 63 36976ft 562kts
01-Jan-22 11:50 38.914339 -106.804318 62 37020ft 563kts
01-Jan-22 11:51 38.981981 -106.621755 63 35909ft 586kts
01-Jan-22 11:52 39.054371 -106.425219 65 33138ft 612kts
01-Jan-22 11:53 39.122236 -106.236777 63 30310ft 561kts
01-Jan-22 11:54 39.187973 -106.057044 64 27522ft 547kts
01-Jan-22 11:55 39.250846 -105.880653 64 24699ft 538kts
01-Jan-22 11:56 39.312813 -105.707976 62 22004ft 518kts
01-Jan-22 11:57 39.372582 -105.544123 62 18799ft 486kts
01-Jan-22 11:58 39.417666 -105.391680 82 16457ft 409kts
01-Jan-22 11:59 39.418037 -105.259696 93 15225ft 354kts
01-Jan-22 12:00 39.417629 -105.125258 90 14161ft 382kts
01-Jan-22 12:01 39.418822 -104.996358 93 12929ft 335kts
01-Jan-22 12:02 39.422753 -104.883245 83 11833ft 301kts
01-Jan-22 12:03 39.433891 -104.777744 86 10709ft 302kts
01-Jan-22 12:04 39.481227 -104.696651 14 9719ft 282kts
01-Jan-22 12:05 39.553123 -104.697972 351 9569ft 245kts
01-Jan-22 12:06 39.618309 -104.699517 354 9575ft 224kts
01-Jan-22 12:07 39.682221 -104.698537 355 8692ft 242kts
01-Jan-22 12:08 39.751433 -104.697818 355 7297ft 233kts
01-Jan-22 12:09 39.806360 -104.697089 356 6250ft 157kts
01-Jan-22 12:10 39.845858 -104.696700 1 5442ft 134kts
01-Jan-22 12:11 39.868277 -104.696098 55 5365ft 15kts
01-Jan-22 12:12 39.866951 -104.695395 166 5363ft 6kts
01-Jan-22 12:13 39.865344 -104.694424 164 5363ft 5kts
01-Jan-22 12:14 39.863130 -104.694299 180 5363ft 9kts
01-Jan-22 12:15 39.861275 -104.694334 180 5363ft 4kts
01-Jan-22 12:16 39.860385 -104.692491 90 5363ft 9kts
01-Jan-22 12:17 39.860357 -104.687998 90 5363ft 14kts
01-Jan-22 12:18 39.859790 -104.683936 176 5363ft 9kts
01-Jan-22 12:19 39.856217 -104.683858 150 5363ft 15kts
01-Jan-22 12:20 39.855944 -104.678727 90 5363ft 9kts
01-Jan-22 12:21 39.855131 -104.677874 202 5363ft 4kts
01-Jan-22 12:22 39.854402 -104.678073 167 5363ft 0kts
01-Jan-22 12:23 39.854402 -104.678073 167 5363ft 0kts
01-Jan-22 12:24 39.854402 -104.678073 167 5363ft 0kts
01-Jan-22 12:25 39.854402 -104.678073 167 5363ft 0kts

Navigation Log

Ident Type
Flight plan parsing failed, navigation log unavailable